Latest Weather Observations for The Monument

IDQ60801

Issued at 11:02 am EST Saturday 5 September 2015 (issued every 30 minutes, with the page automatically refreshed every 10 minutes)

About weather observations | Map of weather stations | Latest weather observations for QLD | Other Formats
Station Details ID: 037034 Name: THE MONUMENT AIRPORT Lat: -21.81 Lon: 139.93 Height: 288.4 m
Data from the previous 72 hours. | See also: Recent months at The Monument
Date/Time
EST
Temp
°C
App
Temp
°C
Dew
Point
Rel
Hum
%
Delta-T
°C
Wind Press
QNH
hPa
Press
MSL
hPa
Rain
since 9 am
mm
Dir
 
Spd
km/h
Gust
km/h
Spd
kts
Gust
kts
05/11:00am 21.7 16.9 2.4 28 9.2 SE 17 32 9 17 1022.6 1021.4 0.0
05/10:30am 21.2 15.9 3.0 30 8.7 ESE 20 30 11 16 1023.0 1021.8 0.0
05/10:00am 19.4 14.0 2.7 33 7.8 ESE 20 28 11 15 1023.3 1022.1 0.0
05/09:30am 17.9 12.7 2.6 36 7.1 SE 19 24 10 13 1023.5 1022.3 0.0
05/09:00am 16.8 11.6 2.4 38 6.6 SE 19 24 10 13 1023.2 1022.0 -
05/08:30am 15.3 11.1 1.8 40 6.0 SE 13 22 7 12 1023.0 1021.8 -
05/08:00am 12.9 9.6 0.3 42 5.3 S 7 9 4 5 1022.8 1021.6 -
05/07:30am 10.6 8.1 -1.1 44 4.7 SSW 2 9 1 5 1022.6 1021.4 -
05/07:00am 8.3 6.0 -2.3 47 4.0 CALM 0 0 0 0 1022.1 1020.9 -
05/06:30am 8.6 5.3 -1.2 50 3.8 ESE 6 7 3 4 1021.8 1020.6 -
05/06:00am 9.4 6.3 -2.8 42 4.6 SSW 4 9 2 5 1021.6 1020.4 -
05/05:30am 8.9 6.6 -2.7 44 4.4 CALM 0 0 0 0 1021.4 1020.1 -
05/05:00am 10.6 7.2 -2.1 41 5.0 SSW 6 11 3 6 1021.2 1019.9 -
05/04:30am 9.8 6.6 -3.8 38 5.1 SSW 4 7 2 4 1021.0 1019.7 -
05/04:00am 11.6 7.2 -2.6 37 5.5 SSW 11 13 6 7 1020.9 1019.6 -
05/03:30am 12.2 7.8 -2.4 36 5.8 SSW 11 13 6 7 1020.9 1019.6 -
05/03:00am 12.7 8.3 -2.3 35 6.0 SSW 11 11 6 6 1021.0 1019.7 0.0
05/02:30am 13.0 8.2 -2.5 34 6.2 SSW 13 15 7 8 1021.1 1019.8 -
05/02:00am 13.1 9.0 -2.8 33 6.3 SSW 9 11 5 6 1021.2 1019.9 -
05/01:30am 13.9 9.5 -2.5 32 6.6 S 11 13 6 7 1021.4 1020.1 -
05/01:00am 13.2 9.2 -2.3 34 6.2 SSE 9 9 5 5 1021.6 1020.4 -
05/12:30am 13.3 9.6 -3.0 32 6.4 SSW 7 9 4 5 1021.9 1020.7 -
05/12:00am 13.1 9.5 -2.4 34 6.2 S 7 9 4 5 1021.9 1020.7 -
 
Date/Time
EST
Temp
°C
App
Temp
°C
Dew
Point
Rel
Hum
%
Delta-T
°C
Wind Press
QNH
hPa
Press
MSL
hPa
Rain
since 9 am
mm
Dir
 
Spd
km/h
Gust
km/h
Spd
kts
Gust
kts
04/11:30pm 12.6 9.6 -4.9 29 6.6 WSW 2 7 1 4 1022.0 1020.8 -
04/11:00pm 15.3 11.7 -3.6 27 7.5 SSW 6 7 3 4 1022.1 1020.9 -
04/10:30pm 13.8 10.8 -4.8 27 7.1 SSW 2 6 1 3 1022.0 1020.8 -
04/10:00pm 14.2 10.5 -5.0 26 7.3 SSW 6 7 3 4 1022.1 1020.9 -
04/09:30pm 17.0 13.3 -2.6 26 8.1 SSW 7 9 4 5 1021.9 1020.7 -
04/09:00pm 17.7 13.7 -2.6 25 8.4 S 9 9 5 5 1021.7 1020.5 0.0
04/08:30pm 18.5 14.1 -2.4 24 8.8 S 11 13 6 7 1021.4 1020.1 -
04/08:00pm 19.3 14.9 -2.3 23 9.2 S 11 11 6 6 1021.0 1019.7 -
04/07:30pm 20.7 16.0 -1.8 22 9.8 S 13 17 7 9 1020.7 1019.4 -
04/07:00pm 21.6 16.8 -2.3 20 10.4 S 13 17 7 9 1020.4 1019.1 -
04/06:30pm 22.5 17.4 -2.2 19 10.8 S 15 20 8 11 1020.0 1018.8 -
04/06:00pm 23.6 18.2 -1.3 19 11.2 S 17 26 9 14 1019.8 1018.6 -
04/05:30pm 24.5 18.7 -1.3 18 11.7 SSW 19 26 10 14 1019.5 1018.3 -
04/05:00pm 24.9 19.0 -1.0 18 11.8 SSW 20 26 11 14 1019.3 1018.1 -
04/04:30pm 25.1 19.0 -2.5 16 12.3 S 20 30 11 16 1019.3 1018.1 -
04/04:00pm 25.1 19.7 -1.6 17 12.1 SSW 17 24 9 13 1019.2 1018.0 -
04/03:30pm 25.4 20.6 0.1 19 11.9 SSE 15 20 8 11 1019.3 1018.1 -
04/03:00pm 24.3 18.4 -0.8 19 11.4 SSW 20 32 11 17 1019.7 1018.5 -
04/02:30pm 24.9 20.8 -0.3 19 11.7 SSE 11 24 6 13 1020.0 1018.8 0.0
04/02:00pm 24.0 19.6 0.4 21 11.0 S 13 20 7 11 1020.6 1019.3 0.0
04/01:30pm 24.8 20.2 1.7 22 11.1 SSE 15 24 8 13 1020.9 1019.6 0.0
04/01:00pm 23.8 19.3 2.0 24 10.4 SSE 15 24 8 13 1021.4 1020.1 0.0
04/12:30pm 22.5 17.6 2.1 26 9.7 SSE 17 24 9 13 1022.0 1020.8 0.0
04/12:00pm 22.6 18.7 3.2 28 9.4 ESE 13 22 7 12 1022.7 1021.5 0.0
04/11:30am 21.5 16.6 2.2 28 9.1 ESE 17 24 9 13 1023.4 1022.2 0.0
04/11:00am 20.9 15.5 2.7 30 8.6 SE 20 32 11 17 1023.8 1022.6 0.0
04/10:30am 20.4 14.4 3.2 32 8.2 SE 24 32 13 17 1024.1 1022.8 0.0
04/10:00am 19.7 15.0 3.0 33 7.9 SE 17 26 9 14 1024.3 1023.0 0.0
04/09:30am 18.4 13.8 3.5 37 7.1 SE 17 24 9 13 1024.4 1023.1 0.0
04/09:00am 16.7 12.8 3.4 41 6.2 SSE 13 19 7 10 1024.4 1023.1 -
04/08:30am 15.2 11.4 3.7 46 5.4 S 13 17 7 9 1024.3 1023.0 -
04/08:00am 13.2 10.0 3.0 50 4.6 S 9 11 5 6 1024.0 1022.7 -
04/07:30am 10.3 8.4 0.3 50 4.1 CALM 0 0 0 0 1023.6 1022.4 -
04/07:00am 9.4 7.1 0.3 53 3.7 SW 2 7 1 4 1023.2 1022.0 -
04/06:30am 10.2 7.1 1.6 55 3.7 SSW 7 9 4 5 1022.7 1021.5 -
04/06:00am 10.5 7.1 1.6 54 3.8 S 9 11 5 6 1022.3 1021.1 -
04/05:30am 11.0 7.9 1.5 52 4.1 S 7 9 4 5 1022.1 1020.9 -
04/05:00am 11.5 7.7 1.7 51 4.2 S 11 13 6 7 1022.0 1020.8 -
04/04:30am 11.6 7.8 1.5 50 4.3 S 11 11 6 6 1021.9 1020.7 -
04/04:00am 12.2 8.4 1.8 49 4.5 S 11 15 6 8 1021.7 1020.5 -
04/03:30am 12.4 8.2 1.4 47 4.8 S 13 15 7 8 1021.8 1020.6 -
04/03:00am 12.5 8.9 0.6 44 5.0 SSW 9 11 5 6 1021.7 1020.5 0.0
04/02:30am 12.7 9.0 -0.2 41 5.4 SSW 9 11 5 6 1021.7 1020.5 -
04/02:00am 13.1 9.0 -0.5 39 5.6 S 11 13 6 7 1021.7 1020.5 -
04/01:30am 13.2 8.9 -1.5 36 6.0 S 11 13 6 7 1021.7 1020.5 -
04/01:00am 12.5 8.3 -3.7 32 6.2 S 9 11 5 6 1021.8 1020.6 -
04/12:30am 12.6 8.6 -2.4 35 6.0 S 9 11 5 6 1022.2 1021.0 -
04/12:00am 11.8 8.0 -5.2 30 6.3 SSW 6 7 3 4 1022.3 1021.1 -
 
Date/Time
EST
Temp
°C
App
Temp
°C
Dew
Point
Rel
Hum
%
Delta-T
°C
Wind Press
QNH
hPa
Press
MSL
hPa
Rain
since 9 am
mm
Dir
 
Spd
km/h
Gust
km/h
Spd
kts
Gust
kts
03/11:30pm 14.1 11.4 -2.8 31 6.8 SSW 2 9 1 5 1022.4 1021.2 -
03/11:00pm 13.2 9.4 -5.4 27 6.9 SSW 6 9 3 5 1022.3 1021.1 -
03/10:30pm 14.9 11.1 -3.9 27 7.4 S 7 9 4 5 1022.3 1021.1 -
03/10:00pm 15.8 11.7 -3.1 27 7.6 S 9 9 5 5 1022.1 1020.9 -
03/09:30pm 17.0 13.0 -2.6 26 8.1 S 9 11 5 6 1022.0 1020.8 -
03/09:00pm 17.5 13.1 -2.7 25 8.3 SSE 11 11 6 6 1021.9 1020.7 0.0
03/08:30pm 18.1 13.7 -2.2 25 8.6 SSE 11 11 6 6 1021.6 1020.4 -
03/08:00pm 18.7 14.3 -2.3 24 8.9 SSE 11 13 6 7 1021.3 1020.0 -
03/07:30pm 19.9 15.6 -1.8 23 9.4 SSE 11 13 6 7 1021.0 1019.7 -
03/07:00pm 21.1 16.5 -1.4 22 9.9 S 13 15 7 8 1020.7 1019.4 -
03/06:30pm 22.3 17.2 -1.7 20 10.6 S 15 20 8 11 1020.4 1019.1 -
03/06:00pm 23.4 18.0 -1.5 19 11.1 S 17 24 9 13 1020.1 1018.9 -
03/05:30pm 24.2 18.4 -1.6 18 11.6 S 19 28 10 15 1019.9 1018.7 -
03/05:00pm 24.7 18.9 -1.2 18 11.8 S 19 28 10 15 1019.8 1018.6 -
03/04:30pm 25.1 19.3 -1.6 17 12.1 S 19 30 10 16 1019.8 1018.6 -
03/04:00pm 24.7 18.3 -2.0 17 11.9 S 22 32 12 17 1019.8 1018.6 -
03/03:30pm 25.3 19.3 -1.5 17 12.2 SSW 20 30 11 16 1019.9 1018.7 -
03/03:00pm 24.5 18.2 -1.3 18 11.7 S 22 33 12 18 1020.1 1018.9 -
03/02:30pm 24.3 18.0 -0.8 19 11.5 S 22 33 12 18 1020.4 1019.1 -
03/02:00pm 23.8 17.9 -1.9 18 11.4 S 19 30 10 16 1020.9 1019.6 -
03/01:30pm 23.7 18.0 -0.6 20 11.1 S 19 30 10 16 1021.5 1020.2 -
03/01:00pm 22.3 16.0 -1.1 21 10.4 SSE 22 32 12 17 1022.0 1020.8 -
03/12:30pm 22.7 16.5 -0.1 22 10.4 SSE 22 39 12 21 1022.3 1021.1 -
03/12:00pm 21.1 14.5 -0.2 24 9.6 SSE 24 35 13 19 1022.9 1021.7 -
03/11:30am 21.7 15.3 0.8 25 9.7 SSE 24 39 13 21 1023.4 1022.2 0.0
03/11:00am 20.9 13.7 0.7 26 9.2 S 28 41 15 22 1023.6 1022.4 0.0
03/10:30am 20.1 13.3 0.5 27 8.9 SSE 26 35 14 19 1024.1 1022.8 0.0
03/10:00am 19.0 11.7 0.1 28 8.4 SSE 28 37 15 20 1024.2 1022.9 0.0
03/09:30am 18.2 10.8 -0.6 28 8.2 SSE 28 35 15 19 1024.1 1022.8 0.0
03/09:00am 18.0 11.6 -1.8 26 8.4 SSE 22 32 12 17 1023.6 1022.4 0.0
03/08:30am 17.0 11.8 -3.1 25 8.2 SSE 15 26 8 14 1023.2 1022.0 0.0
03/08:00am 15.0 10.6 -5.9 23 7.9 S 9 13 5 7 1022.8 1021.6 0.0
03/07:30am 12.6 8.6 -5.9 27 6.8 SSW 7 9 4 5 1022.3 1021.1 0.0
03/07:00am 10.3 6.7 -7.4 28 6.1 SSW 4 6 2 3 1021.8 1020.6 0.0
03/06:30am 12.2 7.8 -6.2 27 6.7 S 9 11 5 6 1021.4 1020.1 0.0
03/06:00am 12.8 8.7 -6.2 26 6.9 S 7 9 4 5 1020.9 1019.6 0.0
03/05:30am 12.9 9.0 -5.1 28 6.8 SSE 7 9 4 5 1020.5 1019.2 0.0
03/05:00am 13.2 9.2 -5.4 27 6.9 SE 7 9 4 5 1020.1 1018.9 0.0
03/04:30am 13.0 9.0 -6.0 26 7.0 NE 7 9 4 5 1019.9 1018.7 0.0
03/04:00am 14.6 10.6 -5.7 24 7.6 SSE 7 9 4 5 1019.5 1018.3 0.0
03/03:30am 15.4 11.4 -5.6 23 8.0 ENE 7 9 4 5 1019.6 1018.4 0.0
03/03:00am 16.5 11.0 -5.3 22 8.5 S 15 22 8 12 1019.0 1017.8 0.0
03/02:30am 17.2 11.0 -4.7 22 8.7 S 19 26 10 14 1018.9 1017.7 0.0
03/02:00am 17.8 11.7 -4.2 22 8.9 S 19 24 10 13 1018.9 1017.7 0.0
03/01:30am 18.5 12.2 -3.6 22 9.1 S 20 26 11 14 1018.8 1017.6 0.0
03/01:00am 18.9 13.3 -2.7 23 9.1 S 17 26 9 14 1018.9 1017.7 0.0
03/12:30am 19.2 13.7 -1.8 24 9.0 S 17 24 9 13 1018.9 1017.7 0.0
03/12:00am 19.7 14.3 -1.4 24 9.2 S 17 22 9 12 1019.0 1017.8 0.0
 
Date/Time
EST
Temp
°C
App
Temp
°C
Dew
Point
Rel
Hum
%
Delta-T
°C
Wind Press
QNH
hPa
Press
MSL
hPa
Rain
since 9 am
mm
Dir
 
Spd
km/h
Gust
km/h
Spd
kts
Gust
kts
02/11:30pm 20.3 14.4 -0.9 24 9.4 S 20 30 11 16 1018.8 1017.6 0.0
02/11:00pm 20.9 15.0 -1.0 23 9.7 S 20 30 11 16 1018.7 1017.5 0.0
02/10:30pm 21.7 15.5 -0.3 23 9.9 S 22 32 12 17 1018.5 1017.3 0.0
02/10:00pm 22.0 16.1 -0.7 22 10.2 S 20 28 11 15 1018.3 1017.0 0.0
02/09:30pm 22.3 16.5 0.2 23 10.1 SSW 20 26 11 14 1018.1 1016.8 0.0
02/09:00pm 22.2 17.1 0.7 24 9.9 SSW 17 22 9 12 1017.9 1016.6 0.0
02/08:30pm 22.8 17.7 0.6 23 10.3 SSW 17 19 9 10 1017.7 1016.4 0.0
02/08:00pm 23.3 18.2 1.0 23 10.5 SSW 17 22 9 12 1017.3 1016.0 0.0
02/07:30pm 24.0 18.4 1.0 22 10.9 SSW 20 28 11 15 1016.8 1015.5 0.0
02/07:00pm 24.9 19.0 1.7 22 11.2 SSW 22 30 12 16 1016.1 1014.9 0.0
02/06:30pm 25.7 19.9 2.4 22 11.4 SSW 22 28 12 15 1015.6 1014.4 0.0
02/06:00pm 26.7 19.9 3.2 22 11.8 SSW 28 39 15 21 1015.3 1014.0 0.0
02/05:30pm 27.4 21.5 3.8 22 12.0 SSW 24 30 13 16 1015.0 1013.7 0.0
02/05:00pm 28.5 23.1 4.7 22 12.4 SW 22 30 12 16 1014.7 1013.4 0.0
02/04:30pm 28.6 23.8 4.8 22 12.4 SW 19 30 10 16 1014.4 1013.1 0.0
02/04:00pm 28.0 22.7 5.0 23 12.0 SW 22 32 12 17 1014.2 1012.9 0.0
02/03:30pm 27.9 22.3 5.5 24 11.8 SSW 24 32 13 17 1014.1 1012.8 0.0
02/03:00pm 27.5 21.6 5.7 25 11.5 SSW 26 35 14 19 1014.3 1013.0 0.0
02/02:30pm 30.9 24.9 5.3 20 13.6 WSW 26 37 14 20 1014.2 1012.9 0.0
02/02:00pm 30.6 24.1 2.8 17 14.2 WSW 26 35 14 19 1014.2 1012.9 0.0
02/01:30pm 31.0 23.6 3.9 18 14.1 W 32 43 17 23 1014.1 1012.8 0.0
02/01:00pm 30.8 22.6 2.9 17 14.3 W 35 46 19 25 1014.4 1013.1 0.0
02/12:30pm 32.2 22.8 2.3 15 15.3 WNW 41 54 22 29 1014.4 1013.1 0.0
02/12:09pm 33.4 23.4 2.3 14 16.0 NW 44 63 24 34 1014.4 1013.1 0.0
02/12:00pm 33.6 23.1 1.4 13 16.3 WNW 46 59 25 32 1014.5 1013.2 0.0
02/11:35am 32.6 22.5 0.6 13 15.9 NW 43 61 23 33 1014.6 1013.3 0.0
02/11:30am 32.2 21.5 0.3 13 15.7 NW 46 61 25 33 1014.7 1013.4 0.0

Other Formats:

Comma delimited format used in spreadsheet applications
http://www.bom.gov.au/fwo/IDQ60801/IDQ60801.94336.axf

JavaScript Object Notation format (JSON) in row-major order
http://www.bom.gov.au/fwo/IDQ60801/IDQ60801.94336.json